sensor_id;sensor_type;location;lat;lon;timestamp;temperature;humidity
2220;DHT22;1116;51.502;7.414;2024-02-28T00:01:24;4.20;56.40
2220;DHT22;1116;51.502;7.414;2024-02-28T00:03:56;4.30;56.50
2220;DHT22;1116;51.502;7.414;2024-02-28T00:06:27;4.10;55.90
2220;DHT22;1116;51.502;7.414;2024-02-28T00:08:57;4.20;56.30
2220;DHT22;1116;51.502;7.414;2024-02-28T00:11:27;4.20;56.50
2220;DHT22;1116;51.502;7.414;2024-02-28T00:13:57;4.20;55.80
2220;DHT22;1116;51.502;7.414;2024-02-28T00:16:28;4.20;56.50
2220;DHT22;1116;51.502;7.414;2024-02-28T00:19:01;4.20;55.70
2220;DHT22;1116;51.502;7.414;2024-02-28T00:21:31;4.00;55.30
2220;DHT22;1116;51.502;7.414;2024-02-28T00:24:01;4.00;55.80
2220;DHT22;1116;51.502;7.414;2024-02-28T00:26:31;4.10;55.90
2220;DHT22;1116;51.502;7.414;2024-02-28T00:29:02;4.10;56.40
2220;DHT22;1116;51.502;7.414;2024-02-28T00:31:32;4.00;55.90
2220;DHT22;1116;51.502;7.414;2024-02-28T00:34:04;4.10;56.00
2220;DHT22;1116;51.502;7.414;2024-02-28T00:36:36;4.00;56.10
2220;DHT22;1116;51.502;7.414;2024-02-28T00:39:21;4.10;55.30
2220;DHT22;1116;51.502;7.414;2024-02-28T00:41:51;3.90;55.90
2220;DHT22;1116;51.502;7.414;2024-02-28T00:44:21;4.00;56.10
2220;DHT22;1116;51.502;7.414;2024-02-28T00:46:51;3.70;54.20
2220;DHT22;1116;51.502;7.414;2024-02-28T00:49:24;3.80;55.30
2220;DHT22;1116;51.502;7.414;2024-02-28T00:51:54;3.70;56.40
2220;DHT22;1116;51.502;7.414;2024-02-28T00:54:24;3.60;56.60
2220;DHT22;1116;51.502;7.414;2024-02-28T00:56:55;3.80;56.10
2220;DHT22;1116;51.502;7.414;2024-02-28T00:59:25;3.80;56.50
2220;DHT22;1116;51.502;7.414;2024-02-28T01:01:55;3.80;56.90
2220;DHT22;1116;51.502;7.414;2024-02-28T01:04:27;3.80;56.10
2220;DHT22;1116;51.502;7.414;2024-02-28T01:06:57;3.80;57.00
2220;DHT22;1116;51.502;7.414;2024-02-28T01:09:27;3.80;57.60
2220;DHT22;1116;51.502;7.414;2024-02-28T01:11:58;3.90;56.80
2220;DHT22;1116;51.502;7.414;2024-02-28T01:14:28;3.80;56.50
2220;DHT22;1116;51.502;7.414;2024-02-28T01:16:58;3.80;56.70
2220;DHT22;1116;51.502;7.414;2024-02-28T01:19:31;3.60;57.90
2220;DHT22;1116;51.502;7.414;2024-02-28T01:22:02;3.80;56.70
2220;DHT22;1116;51.502;7.414;2024-02-28T01:24:32;3.70;56.40
2220;DHT22;1116;51.502;7.414;2024-02-28T01:27:04;3.70;56.10
2220;DHT22;1116;51.502;7.414;2024-02-28T01:29:34;3.70;56.80
2220;DHT22;1116;51.502;7.414;2024-02-28T01:32:04;3.60;57.50
2220;DHT22;1116;51.502;7.414;2024-02-28T01:34:37;3.50;57.20
2220;DHT22;1116;51.502;7.414;2024-02-28T01:37:07;3.60;57.80
2220;DHT22;1116;51.502;7.414;2024-02-28T01:39:37;3.60;57.90
2220;DHT22;1116;51.502;7.414;2024-02-28T01:42:08;3.60;57.50
2220;DHT22;1116;51.502;7.414;2024-02-28T01:44:43;3.60;57.70
2220;DHT22;1116;51.502;7.414;2024-02-28T01:47:14;3.60;58.10
2220;DHT22;1116;51.502;7.414;2024-02-28T01:49:47;3.70;57.80
2220;DHT22;1116;51.502;7.414;2024-02-28T01:52:20;3.70;57.20
2220;DHT22;1116;51.502;7.414;2024-02-28T01:54:51;3.70;56.70
2220;DHT22;1116;51.502;7.414;2024-02-28T01:57:22;3.50;56.90
2220;DHT22;1116;51.502;7.414;2024-02-28T01:59:54;3.40;57.00
2220;DHT22;1116;51.502;7.414;2024-02-28T02:02:25;4.70;59.20
2220;DHT22;1116;51.502;7.414;2024-02-28T02:04:57;3.60;56.80
2220;DHT22;1116;51.502;7.414;2024-02-28T02:07:28;3.70;57.00
2220;DHT22;1116;51.502;7.414;2024-02-28T02:13:31;3.60;57.20
2220;DHT22;1116;51.502;7.414;2024-02-28T02:16:02;3.60;57.50
2220;DHT22;1116;51.502;7.414;2024-02-28T02:18:33;3.60;57.50
2220;DHT22;1116;51.502;7.414;2024-02-28T02:21:06;3.60;57.70
2220;DHT22;1116;51.502;7.414;2024-02-28T02:23:41;3.60;58.40
2220;DHT22;1116;51.502;7.414;2024-02-28T02:26:11;3.70;58.10
2220;DHT22;1116;51.502;7.414;2024-02-28T02:28:41;3.70;58.70
2220;DHT22;1116;51.502;7.414;2024-02-28T02:31:11;3.60;58.30
2220;DHT22;1116;51.502;7.414;2024-02-28T02:33:42;3.70;58.40
2220;DHT22;1116;51.502;7.414;2024-02-28T02:36:12;3.60;57.80
2220;DHT22;1116;51.502;7.414;2024-02-28T02:38:45;3.60;57.80
2220;DHT22;1116;51.502;7.414;2024-02-28T02:41:15;3.50;57.60
2220;DHT22;1116;51.502;7.414;2024-02-28T02:43:45;3.40;58.40
2220;DHT22;1116;51.502;7.414;2024-02-28T02:46:15;3.30;57.80
2220;DHT22;1116;51.502;7.414;2024-02-28T02:48:45;3.30;58.40
2220;DHT22;1116;51.502;7.414;2024-02-28T02:51:15;3.40;57.90
2220;DHT22;1116;51.502;7.414;2024-02-28T02:53:48;3.40;57.10
2220;DHT22;1116;51.502;7.414;2024-02-28T02:56:18;3.50;57.00
2220;DHT22;1116;51.502;7.414;2024-02-28T02:58:48;3.60;57.20
2220;DHT22;1116;51.502;7.414;2024-02-28T03:01:18;3.50;57.00
2220;DHT22;1116;51.502;7.414;2024-02-28T03:03:49;3.50;57.50
2220;DHT22;1116;51.502;7.414;2024-02-28T03:06:19;3.60;57.30
2220;DHT22;1116;51.502;7.414;2024-02-28T03:08:53;3.70;56.00
2220;DHT22;1116;51.502;7.414;2024-02-28T03:11:23;3.70;57.00
2220;DHT22;1116;51.502;7.414;2024-02-28T03:13:54;3.80;57.20
2220;DHT22;1116;51.502;7.414;2024-02-28T03:16:24;4.00;56.30
2220;DHT22;1116;51.502;7.414;2024-02-28T03:18:56;4.10;55.80
2220;DHT22;1116;51.502;7.414;2024-02-28T03:21:26;4.00;56.10
2220;DHT22;1116;51.502;7.414;2024-02-28T03:23:59;3.90;57.00
2220;DHT22;1116;51.502;7.414;2024-02-28T03:26:28;4.00;58.00
2220;DHT22;1116;51.502;7.414;2024-02-28T03:28:59;4.20;58.70
2220;DHT22;1116;51.502;7.414;2024-02-28T03:31:29;4.40;59.00
2220;DHT22;1116;51.502;7.414;2024-02-28T03:33:59;4.40;59.30
2220;DHT22;1116;51.502;7.414;2024-02-28T03:36:29;4.50;60.20
2220;DHT22;1116;51.502;7.414;2024-02-28T03:39:02;4.50;60.50
2220;DHT22;1116;51.502;7.414;2024-02-28T03:41:33;4.40;60.80
2220;DHT22;1116;51.502;7.414;2024-02-28T03:44:03;4.40;62.00
2220;DHT22;1116;51.502;7.414;2024-02-28T03:46:34;4.30;62.00
2220;DHT22;1116;51.502;7.414;2024-02-28T03:49:04;4.30;62.00
2220;DHT22;1116;51.502;7.414;2024-02-28T03:51:39;4.20;61.90
2220;DHT22;1116;51.502;7.414;2024-02-28T03:54:12;4.20;62.80
2220;DHT22;1116;51.502;7.414;2024-02-28T03:56:42;4.20;63.30
2220;DHT22;1116;51.502;7.414;2024-02-28T03:59:12;4.10;64.10
2220;DHT22;1116;51.502;7.414;2024-02-28T04:01:42;4.10;64.50
2220;DHT22;1116;51.502;7.414;2024-02-28T04:04:12;4.10;64.40
2220;DHT22;1116;51.502;7.414;2024-02-28T04:06:42;4.10;65.30
2220;DHT22;1116;51.502;7.414;2024-02-28T04:09:16;4.10;65.00
2220;DHT22;1116;51.502;7.414;2024-02-28T04:11:47;4.10;65.50
2220;DHT22;1116;51.502;7.414;2024-02-28T04:14:18;4.20;66.00
2220;DHT22;1116;51.502;7.414;2024-02-28T04:16:48;4.30;65.40
2220;DHT22;1116;51.502;7.414;2024-02-28T04:19:18;4.30;65.20
2220;DHT22;1116;51.502;7.414;2024-02-28T04:21:48;4.30;65.20
2220;DHT22;1116;51.502;7.414;2024-02-28T04:24:21;4.40;65.30
2220;DHT22;1116;51.502;7.414;2024-02-28T04:26:51;4.40;65.60
2220;DHT22;1116;51.502;7.414;2024-02-28T04:29:21;4.50;65.60
2220;DHT22;1116;51.502;7.414;2024-02-28T04:31:51;4.60;64.90
2220;DHT22;1116;51.502;7.414;2024-02-28T04:34:21;4.60;64.60
2220;DHT22;1116;51.502;7.414;2024-02-28T04:36:51;4.70;64.70
2220;DHT22;1116;51.502;7.414;2024-02-28T04:39:24;4.70;64.50
2220;DHT22;1116;51.502;7.414;2024-02-28T04:41:54;4.80;64.40
2220;DHT22;1116;51.502;7.414;2024-02-28T04:44:24;4.80;63.90
2220;DHT22;1116;51.502;7.414;2024-02-28T04:46:54;4.80;63.90
2220;DHT22;1116;51.502;7.414;2024-02-28T04:49:24;4.80;63.50
2220;DHT22;1116;51.502;7.414;2024-02-28T04:51:54;4.80;63.00
2220;DHT22;1116;51.502;7.414;2024-02-28T04:54:26;4.80;63.80
2220;DHT22;1116;51.502;7.414;2024-02-28T04:56:56;4.80;63.60
2220;DHT22;1116;51.502;7.414;2024-02-28T04:59:26;4.80;64.20
2220;DHT22;1116;51.502;7.414;2024-02-28T05:01:57;4.80;64.40
2220;DHT22;1116;51.502;7.414;2024-02-28T05:04:27;4.70;64.70
2220;DHT22;1116;51.502;7.414;2024-02-28T05:06:57;4.80;64.40
2220;DHT22;1116;51.502;7.414;2024-02-28T05:09:30;4.80;64.30
2220;DHT22;1116;51.502;7.414;2024-02-28T05:12:00;4.80;64.00
2220;DHT22;1116;51.502;7.414;2024-02-28T05:14:30;4.80;64.60
2220;DHT22;1116;51.502;7.414;2024-02-28T05:16:59;4.90;64.10
2220;DHT22;1116;51.502;7.414;2024-02-28T05:19:29;4.90;64.90
2220;DHT22;1116;51.502;7.414;2024-02-28T05:21:59;4.90;63.30
2220;DHT22;1116;51.502;7.414;2024-02-28T05:24:32;4.90;64.30
2220;DHT22;1116;51.502;7.414;2024-02-28T05:27:03;4.90;64.50
2220;DHT22;1116;51.502;7.414;2024-02-28T05:29:33;5.00;64.80
2220;DHT22;1116;51.502;7.414;2024-02-28T05:32:03;5.10;63.10
2220;DHT22;1116;51.502;7.414;2024-02-28T05:34:34;5.20;63.00
2220;DHT22;1116;51.502;7.414;2024-02-28T05:37:04;5.10;62.60
2220;DHT22;1116;51.502;7.414;2024-02-28T05:39:37;5.10;63.40
2220;DHT22;1116;51.502;7.414;2024-02-28T05:42:07;5.00;63.10
2220;DHT22;1116;51.502;7.414;2024-02-28T05:44:37;5.10;62.80
2220;DHT22;1116;51.502;7.414;2024-02-28T05:47:07;5.10;63.20
2220;DHT22;1116;51.502;7.414;2024-02-28T05:49:37;5.10;62.60
2220;DHT22;1116;51.502;7.414;2024-02-28T05:52:07;5.10;63.70
2220;DHT22;1116;51.502;7.414;2024-02-28T05:54:40;5.10;62.70
2220;DHT22;1116;51.502;7.414;2024-02-28T05:57:10;5.00;63.70
2220;DHT22;1116;51.502;7.414;2024-02-28T05:59:40;5.10;63.30
2220;DHT22;1116;51.502;7.414;2024-02-28T06:02:10;5.00;62.60
2220;DHT22;1116;51.502;7.414;2024-02-28T06:04:40;5.00;63.10
2220;DHT22;1116;51.502;7.414;2024-02-28T06:07:10;5.10;63.70
2220;DHT22;1116;51.502;7.414;2024-02-28T06:09:43;5.20;63.30
2220;DHT22;1116;51.502;7.414;2024-02-28T06:12:13;5.30;62.90
2220;DHT22;1116;51.502;7.414;2024-02-28T06:14:43;5.30;62.80
2220;DHT22;1116;51.502;7.414;2024-02-28T06:17:13;5.20;62.70
2220;DHT22;1116;51.502;7.414;2024-02-28T06:19:43;5.20;63.70
2220;DHT22;1116;51.502;7.414;2024-02-28T06:22:13;5.20;63.60
2220;DHT22;1116;51.502;7.414;2024-02-28T06:24:47;5.30;63.70
2220;DHT22;1116;51.502;7.414;2024-02-28T06:27:17;5.20;63.10
2220;DHT22;1116;51.502;7.414;2024-02-28T06:29:47;5.30;63.20
2220;DHT22;1116;51.502;7.414;2024-02-28T06:32:18;5.40;62.90
2220;DHT22;1116;51.502;7.414;2024-02-28T06:34:48;5.40;62.90
2220;DHT22;1116;51.502;7.414;2024-02-28T06:37:18;5.40;62.90
2220;DHT22;1116;51.502;7.414;2024-02-28T06:39:50;5.40;62.90
2220;DHT22;1116;51.502;7.414;2024-02-28T06:42:20;5.30;62.80
2220;DHT22;1116;51.502;7.414;2024-02-28T06:44:51;5.30;62.80
2220;DHT22;1116;51.502;7.414;2024-02-28T06:47:21;5.30;63.60
2220;DHT22;1116;51.502;7.414;2024-02-28T06:49:51;5.30;62.80
2220;DHT22;1116;51.502;7.414;2024-02-28T06:52:21;5.10;63.20
2220;DHT22;1116;51.502;7.414;2024-02-28T06:54:54;5.20;63.50
2220;DHT22;1116;51.502;7.414;2024-02-28T06:57:25;5.20;63.30
2220;DHT22;1116;51.502;7.414;2024-02-28T06:59:55;5.20;63.30
2220;DHT22;1116;51.502;7.414;2024-02-28T07:02:22;5.30;63.30
2220;DHT22;1116;51.502;7.414;2024-02-28T07:04:53;5.40;63.10
2220;DHT22;1116;51.502;7.414;2024-02-28T07:07:23;5.40;62.90
2220;DHT22;1116;51.502;7.414;2024-02-28T07:09:56;5.50;62.90
2220;DHT22;1116;51.502;7.414;2024-02-28T07:12:26;5.50;63.00
2220;DHT22;1116;51.502;7.414;2024-02-28T07:14:56;5.70;62.80
2220;DHT22;1116;51.502;7.414;2024-02-28T07:17:26;5.70;61.90
2220;DHT22;1116;51.502;7.414;2024-02-28T07:19:56;5.90;62.30
2220;DHT22;1116;51.502;7.414;2024-02-28T07:22:26;6.10;61.40
2220;DHT22;1116;51.502;7.414;2024-02-28T07:24:59;6.30;60.70
2220;DHT22;1116;51.502;7.414;2024-02-28T07:27:29;6.40;59.60
2220;DHT22;1116;51.502;7.414;2024-02-28T07:29:59;6.50;59.80
2220;DHT22;1116;51.502;7.414;2024-02-28T07:32:30;6.60;59.30
2220;DHT22;1116;51.502;7.414;2024-02-28T07:35:02;6.80;58.90
2220;DHT22;1116;51.502;7.414;2024-02-28T07:37:32;6.70;58.50
2220;DHT22;1116;51.502;7.414;2024-02-28T07:40:06;6.70;58.80
2220;DHT22;1116;51.502;7.414;2024-02-28T07:42:37;6.60;59.30
2220;DHT22;1116;51.502;7.414;2024-02-28T07:45:07;6.50;59.40
2220;DHT22;1116;51.502;7.414;2024-02-28T07:47:37;6.50;59.80
2220;DHT22;1116;51.502;7.414;2024-02-28T07:50:08;6.50;60.10
2220;DHT22;1116;51.502;7.414;2024-02-28T07:52:38;6.60;60.00
2220;DHT22;1116;51.502;7.414;2024-02-28T07:55:10;6.60;59.60
2220;DHT22;1116;51.502;7.414;2024-02-28T07:57:40;6.50;60.00
2220;DHT22;1116;51.502;7.414;2024-02-28T08:00:13;6.50;60.80
2220;DHT22;1116;51.502;7.414;2024-02-28T08:02:46;6.50;60.70
2220;DHT22;1116;51.502;7.414;2024-02-28T08:05:16;6.50;60.00
2220;DHT22;1116;51.502;7.414;2024-02-28T08:07:46;6.50;60.20
2220;DHT22;1116;51.502;7.414;2024-02-28T08:10:19;6.40;61.10
2220;DHT22;1116;51.502;7.414;2024-02-28T08:12:49;6.60;61.00
2220;DHT22;1116;51.502;7.414;2024-02-28T08:15:19;6.70;60.70
2220;DHT22;1116;51.502;7.414;2024-02-28T08:17:49;6.70;59.80
2220;DHT22;1116;51.502;7.414;2024-02-28T08:20:20;6.70;60.50
2220;DHT22;1116;51.502;7.414;2024-02-28T08:22:50;6.70;59.80
2220;DHT22;1116;51.502;7.414;2024-02-28T08:25:26;6.70;60.30
2220;DHT22;1116;51.502;7.414;2024-02-28T08:27:56;6.70;60.10
2220;DHT22;1116;51.502;7.414;2024-02-28T08:30:27;6.80;60.20
2220;DHT22;1116;51.502;7.414;2024-02-28T08:32:58;6.90;60.30
2220;DHT22;1116;51.502;7.414;2024-02-28T08:35:28;6.90;59.80
2220;DHT22;1116;51.502;7.414;2024-02-28T08:37:58;6.90;59.50
2220;DHT22;1116;51.502;7.414;2024-02-28T08:40:31;7.00;59.60
2220;DHT22;1116;51.502;7.414;2024-02-28T08:43:01;7.20;59.20
2220;DHT22;1116;51.502;7.414;2024-02-28T08:45:32;7.20;59.20
2220;DHT22;1116;51.502;7.414;2024-02-28T08:48:05;7.20;57.90
2220;DHT22;1116;51.502;7.414;2024-02-28T08:50:36;7.20;58.90
2220;DHT22;1116;51.502;7.414;2024-02-28T08:53:06;7.30;58.30
2220;DHT22;1116;51.502;7.414;2024-02-28T08:55:39;7.40;57.40
2220;DHT22;1116;51.502;7.414;2024-02-28T08:58:09;7.50;57.20
2220;DHT22;1116;51.502;7.414;2024-02-28T09:00:39;7.50;56.70
2220;DHT22;1116;51.502;7.414;2024-02-28T09:03:09;7.50;56.70
2220;DHT22;1116;51.502;7.414;2024-02-28T09:05:39;7.60;56.70
2220;DHT22;1116;51.502;7.414;2024-02-28T09:08:09;7.80;55.60
2220;DHT22;1116;51.502;7.414;2024-02-28T09:10:43;7.90;54.70
2220;DHT22;1116;51.502;7.414;2024-02-28T09:13:14;8.00;54.80
2220;DHT22;1116;51.502;7.414;2024-02-28T09:15:45;8.20;54.20
2220;DHT22;1116;51.502;7.414;2024-02-28T09:18:18;8.20;54.20
2220;DHT22;1116;51.502;7.414;2024-02-28T09:20:48;8.20;54.20
2220;DHT22;1116;51.502;7.414;2024-02-28T09:23:18;8.30;53.30
2220;DHT22;1116;51.502;7.414;2024-02-28T09:25:51;8.20;52.90
2220;DHT22;1116;51.502;7.414;2024-02-28T09:28:23;8.20;54.20
2220;DHT22;1116;51.502;7.414;2024-02-28T09:30:53;8.20;52.20
2220;DHT22;1116;51.502;7.414;2024-02-28T09:33:20;8.30;52.60
2220;DHT22;1116;51.502;7.414;2024-02-28T09:35:50;8.40;52.00
2220;DHT22;1116;51.502;7.414;2024-02-28T09:38:20;9.00;51.90
2220;DHT22;1116;51.502;7.414;2024-02-28T09:40:53;9.20;47.90
2220;DHT22;1116;51.502;7.414;2024-02-28T09:43:28;8.90;48.00
2220;DHT22;1116;51.502;7.414;2024-02-28T09:46:03;9.00;48.10
2220;DHT22;1116;51.502;7.414;2024-02-28T09:48:34;9.10;47.30
2220;DHT22;1116;51.502;7.414;2024-02-28T09:51:06;9.70;48.10
2220;DHT22;1116;51.502;7.414;2024-02-28T09:53:36;9.60;44.20
2220;DHT22;1116;51.502;7.414;2024-02-28T09:56:10;9.60;44.60
2220;DHT22;1116;51.502;7.414;2024-02-28T09:58:41;10.20;43.10
2220;DHT22;1116;51.502;7.414;2024-02-28T10:01:12;10.20;40.90
2220;DHT22;1116;51.502;7.414;2024-02-28T10:03:44;10.00;41.00
2220;DHT22;1116;51.502;7.414;2024-02-28T10:06:15;10.20;42.70
2220;DHT22;1116;51.502;7.414;2024-02-28T10:08:45;11.00;40.20
2220;DHT22;1116;51.502;7.414;2024-02-28T10:11:21;10.80;38.60
2220;DHT22;1116;51.502;7.414;2024-02-28T10:13:52;10.30;39.70
2220;DHT22;1116;51.502;7.414;2024-02-28T10:16:23;10.10;39.80
2220;DHT22;1116;51.502;7.414;2024-02-28T10:18:53;10.20;41.60
2220;DHT22;1116;51.502;7.414;2024-02-28T10:21:23;11.10;37.90
2220;DHT22;1116;51.502;7.414;2024-02-28T10:23:53;11.00;37.50
2220;DHT22;1116;51.502;7.414;2024-02-28T10:26:26;11.00;36.40
2220;DHT22;1116;51.502;7.414;2024-02-28T10:28:56;12.40;35.00
2220;DHT22;1116;51.502;7.414;2024-02-28T10:31:26;13.70;32.90
2220;DHT22;1116;51.502;7.414;2024-02-28T10:33:56;15.30;25.60
2220;DHT22;1116;51.502;7.414;2024-02-28T10:36:29;16.20;24.50
2220;DHT22;1116;51.502;7.414;2024-02-28T10:39:01;15.90;20.50
2220;DHT22;1116;51.502;7.414;2024-02-28T10:41:35;15.90;22.40
2220;DHT22;1116;51.502;7.414;2024-02-28T10:44:05;16.90;21.70
2220;DHT22;1116;51.502;7.414;2024-02-28T10:46:36;17.10;18.80
2220;DHT22;1116;51.502;7.414;2024-02-28T10:49:09;16.60;20.40
2220;DHT22;1116;51.502;7.414;2024-02-28T10:51:40;16.20;20.10
2220;DHT22;1116;51.502;7.414;2024-02-28T10:54:12;15.10;22.30
2220;DHT22;1116;51.502;7.414;2024-02-28T10:56:45;15.30;23.90
2220;DHT22;1116;51.502;7.414;2024-02-28T10:59:15;15.30;22.40
2220;DHT22;1116;51.502;7.414;2024-02-28T11:01:46;15.20;22.20
2220;DHT22;1116;51.502;7.414;2024-02-28T11:04:16;15.10;22.40
2220;DHT22;1116;51.502;7.414;2024-02-28T11:06:48;15.00;24.20
2220;DHT22;1116;51.502;7.414;2024-02-28T11:09:20;15.20;23.50
2220;DHT22;1116;51.502;7.414;2024-02-28T11:11:55;15.20;22.20
2220;DHT22;1116;51.502;7.414;2024-02-28T11:14:25;15.50;23.30
2220;DHT22;1116;51.502;7.414;2024-02-28T11:17:02;15.10;22.40
2220;DHT22;1116;51.502;7.414;2024-02-28T11:19:33;14.90;22.50
2220;DHT22;1116;51.502;7.414;2024-02-28T11:22:05;14.80;22.80
2220;DHT22;1116;51.502;7.414;2024-02-28T11:24:35;14.90;23.70
2220;DHT22;1116;51.502;7.414;2024-02-28T11:27:12;15.00;23.10
2220;DHT22;1116;51.502;7.414;2024-02-28T11:29:43;15.00;24.20
2220;DHT22;1116;51.502;7.414;2024-02-28T11:32:13;15.00;24.20
2220;DHT22;1116;51.502;7.414;2024-02-28T11:34:43;15.30;23.70
2220;DHT22;1116;51.502;7.414;2024-02-28T11:37:12;15.00;22.10
2220;DHT22;1116;51.502;7.414;2024-02-28T11:39:46;14.90;24.00
2220;DHT22;1116;51.502;7.414;2024-02-28T11:42:20;15.50;23.00
2220;DHT22;1116;51.502;7.414;2024-02-28T11:44:54;16.00;23.10
2220;DHT22;1116;51.502;7.414;2024-02-28T11:47:28;16.00;22.30
2220;DHT22;1116;51.502;7.414;2024-02-28T11:49:58;16.00;21.60
2220;DHT22;1116;51.502;7.414;2024-02-28T11:52:32;16.20;20.90
2220;DHT22;1116;51.502;7.414;2024-02-28T11:55:03;16.40;21.20
2220;DHT22;1116;51.502;7.414;2024-02-28T11:57:36;16.60;20.80
2220;DHT22;1116;51.502;7.414;2024-02-28T12:00:08;16.80;22.90
2220;DHT22;1116;51.502;7.414;2024-02-28T12:02:40;16.90;22.30
2220;DHT22;1116;51.502;7.414;2024-02-28T12:05:10;16.70;19.30
2220;DHT22;1116;51.502;7.414;2024-02-28T12:07:41;16.60;20.40
2220;DHT22;1116;51.502;7.414;2024-02-28T12:10:11;16.60;20.50
2220;DHT22;1116;51.502;7.414;2024-02-28T12:12:44;16.70;20.40
2220;DHT22;1116;51.502;7.414;2024-02-28T12:15:16;16.80;20.50
2220;DHT22;1116;51.502;7.414;2024-02-28T12:17:46;16.50;22.30
2220;DHT22;1116;51.502;7.414;2024-02-28T12:20:16;16.50;19.70
2220;DHT22;1116;51.502;7.414;2024-02-28T12:22:46;16.00;19.90
2220;DHT22;1116;51.502;7.414;2024-02-28T12:25:16;16.00;20.80
2220;DHT22;1116;51.502;7.414;2024-02-28T12:27:49;15.90;19.80
2220;DHT22;1116;51.502;7.414;2024-02-28T12:30:20;15.90;19.80
2220;DHT22;1116;51.502;7.414;2024-02-28T12:32:50;16.00;19.90
2220;DHT22;1116;51.502;7.414;2024-02-28T12:35:20;16.10;20.30
2220;DHT22;1116;51.502;7.414;2024-02-28T12:37:50;16.10;19.70
2220;DHT22;1116;51.502;7.414;2024-02-28T12:40:20;16.30;20.10
2220;DHT22;1116;51.502;7.414;2024-02-28T12:42:54;16.20;21.00
2220;DHT22;1116;51.502;7.414;2024-02-28T12:45:24;16.10;22.40
2220;DHT22;1116;51.502;7.414;2024-02-28T12:47:54;16.00;23.70
2220;DHT22;1116;51.502;7.414;2024-02-28T12:50:25;16.50;20.30
2220;DHT22;1116;51.502;7.414;2024-02-28T12:52:55;17.10;19.60
2220;DHT22;1116;51.502;7.414;2024-02-28T12:55:26;17.80;19.00
2220;DHT22;1116;51.502;7.414;2024-02-28T12:57:58;18.20;18.00
2220;DHT22;1116;51.502;7.414;2024-02-28T13:00:32;17.90;16.20
2220;DHT22;1116;51.502;7.414;2024-02-28T13:03:02;17.40;18.00
2220;DHT22;1116;51.502;7.414;2024-02-28T13:05:33;17.20;18.80
2220;DHT22;1116;51.502;7.414;2024-02-28T13:08:04;16.80;18.60
2220;DHT22;1116;51.502;7.414;2024-02-28T13:10:35;16.60;20.10
2220;DHT22;1116;51.502;7.414;2024-02-28T13:13:10;16.10;20.10
2220;DHT22;1116;51.502;7.414;2024-02-28T13:15:41;15.70;20.50
2220;DHT22;1116;51.502;7.414;2024-02-28T13:18:12;15.70;19.70
2220;DHT22;1116;51.502;7.414;2024-02-28T13:20:42;15.30;21.10
2220;DHT22;1116;51.502;7.414;2024-02-28T13:23:12;15.20;21.80
2220;DHT22;1116;51.502;7.414;2024-02-28T13:25:42;15.10;21.50
2220;DHT22;1116;51.502;7.414;2024-02-28T13:28:14;15.10;20.40
2220;DHT22;1116;51.502;7.414;2024-02-28T13:30:44;14.80;20.80
2220;DHT22;1116;51.502;7.414;2024-02-28T13:33:15;14.60;21.60
2220;DHT22;1116;51.502;7.414;2024-02-28T13:35:45;14.50;21.60
2220;DHT22;1116;51.502;7.414;2024-02-28T13:38:15;14.60;22.10
2220;DHT22;1116;51.502;7.414;2024-02-28T13:40:45;14.70;20.40
2220;DHT22;1116;51.502;7.414;2024-02-28T13:43:18;14.50;20.40
2220;DHT22;1116;51.502;7.414;2024-02-28T13:45:50;14.50;20.90
2220;DHT22;1116;51.502;7.414;2024-02-28T13:48:22;14.30;20.80
2220;DHT22;1116;51.502;7.414;2024-02-28T13:50:55;14.50;22.20
2220;DHT22;1116;51.502;7.414;2024-02-28T13:53:26;14.60;21.20
2220;DHT22;1116;51.502;7.414;2024-02-28T13:55:56;14.80;22.40
2220;DHT22;1116;51.502;7.414;2024-02-28T13:58:28;14.80;22.30
2220;DHT22;1116;51.502;7.414;2024-02-28T14:01:08;14.90;22.70
2220;DHT22;1116;51.502;7.414;2024-02-28T14:03:39;14.80;21.20
2220;DHT22;1116;51.502;7.414;2024-02-28T14:06:09;14.90;23.30
2220;DHT22;1116;51.502;7.414;2024-02-28T14:08:40;14.60;19.90
2220;DHT22;1116;51.502;7.414;2024-02-28T14:11:10;14.40;21.50
2220;DHT22;1116;51.502;7.414;2024-02-28T14:13:45;14.40;20.10
2220;DHT22;1116;51.502;7.414;2024-02-28T14:16:15;14.30;22.50
2220;DHT22;1116;51.502;7.414;2024-02-28T14:18:46;14.20;23.20
2220;DHT22;1116;51.502;7.414;2024-02-28T14:21:16;14.20;21.50
2220;DHT22;1116;51.502;7.414;2024-02-28T14:23:47;14.10;22.20
2220;DHT22;1116;51.502;7.414;2024-02-28T14:26:17;14.30;23.00
2220;DHT22;1116;51.502;7.414;2024-02-28T14:28:50;13.50;22.90
2220;DHT22;1116;51.502;7.414;2024-02-28T14:31:21;13.70;22.40
2220;DHT22;1116;51.502;7.414;2024-02-28T14:33:51;13.70;21.90
2220;DHT22;1116;51.502;7.414;2024-02-28T14:36:22;13.80;21.30
2220;DHT22;1116;51.502;7.414;2024-02-28T14:38:52;13.70;23.30
2220;DHT22;1116;51.502;7.414;2024-02-28T14:41:22;13.70;21.90
2220;DHT22;1116;51.502;7.414;2024-02-28T14:43:55;13.60;21.50
2220;DHT22;1116;51.502;7.414;2024-02-28T14:46:25;13.40;23.50
2220;DHT22;1116;51.502;7.414;2024-02-28T14:48:55;13.30;23.80
2220;DHT22;1116;51.502;7.414;2024-02-28T14:51:25;13.40;22.80
2220;DHT22;1116;51.502;7.414;2024-02-28T14:53:56;13.30;23.00
2220;DHT22;1116;51.502;7.414;2024-02-28T14:56:27;13.30;21.90
2220;DHT22;1116;51.502;7.414;2024-02-28T14:59:00;13.30;23.00
2220;DHT22;1116;51.502;7.414;2024-02-28T15:01:30;13.30;22.90
2220;DHT22;1116;51.502;7.414;2024-02-28T15:04:01;13.30;22.90
2220;DHT22;1116;51.502;7.414;2024-02-28T15:06:31;13.30;22.50
2220;DHT22;1116;51.502;7.414;2024-02-28T15:09:01;13.10;22.80
2220;DHT22;1116;51.502;7.414;2024-02-28T15:11:32;11.90;21.90
2220;DHT22;1116;51.502;7.414;2024-02-28T15:14:05;13.10;23.30
2220;DHT22;1116;51.502;7.414;2024-02-28T15:16:35;13.20;23.00
2220;DHT22;1116;51.502;7.414;2024-02-28T15:19:05;13.00;23.10
2220;DHT22;1116;51.502;7.414;2024-02-28T15:21:35;12.90;22.70
2220;DHT22;1116;51.502;7.414;2024-02-28T15:24:06;12.70;24.00
2220;DHT22;1116;51.502;7.414;2024-02-28T15:26:36;12.90;25.00
2220;DHT22;1116;51.502;7.414;2024-02-28T15:29:15;12.70;24.30
2220;DHT22;1116;51.502;7.414;2024-02-28T15:31:45;12.70;24.60
2220;DHT22;1116;51.502;7.414;2024-02-28T15:34:15;12.60;23.80
2220;DHT22;1116;51.502;7.414;2024-02-28T15:36:45;12.50;24.40
2220;DHT22;1116;51.502;7.414;2024-02-28T15:39:15;12.40;24.60
2220;DHT22;1116;51.502;7.414;2024-02-28T15:41:45;12.40;25.20
2220;DHT22;1116;51.502;7.414;2024-02-28T15:44:18;12.40;24.80
2220;DHT22;1116;51.502;7.414;2024-02-28T15:46:48;12.30;24.80
2220;DHT22;1116;51.502;7.414;2024-02-28T15:49:18;12.30;24.80
2220;DHT22;1116;51.502;7.414;2024-02-28T15:52:05;12.30;24.40
2220;DHT22;1116;51.502;7.414;2024-02-28T15:54:38;12.30;25.20
2220;DHT22;1116;51.502;7.414;2024-02-28T15:57:09;12.20;25.20
2220;DHT22;1116;51.502;7.414;2024-02-28T15:59:41;12.20;25.70
2220;DHT22;1116;51.502;7.414;2024-02-28T16:02:11;12.20;25.80
2220;DHT22;1116;51.502;7.414;2024-02-28T16:04:41;12.10;25.50
2220;DHT22;1116;51.502;7.414;2024-02-28T16:07:12;12.10;26.30
2220;DHT22;1116;51.502;7.414;2024-02-28T16:09:43;12.10;26.40
2220;DHT22;1116;51.502;7.414;2024-02-28T16:12:13;12.10;26.60
2220;DHT22;1116;51.502;7.414;2024-02-28T16:14:46;12.10;26.90
2220;DHT22;1116;51.502;7.414;2024-02-28T16:17:16;12.10;27.10
2220;DHT22;1116;51.502;7.414;2024-02-28T16:19:46;12.10;27.10
2220;DHT22;1116;51.502;7.414;2024-02-28T16:22:16;12.10;26.40
2220;DHT22;1116;51.502;7.414;2024-02-28T16:24:47;12.00;26.10
2220;DHT22;1116;51.502;7.414;2024-02-28T16:27:18;11.10;26.40
2220;DHT22;1116;51.502;7.414;2024-02-28T16:29:51;12.00;27.00
2220;DHT22;1116;51.502;7.414;2024-02-28T16:32:21;11.90;28.00
2220;DHT22;1116;51.502;7.414;2024-02-28T16:34:51;11.90;27.50
2220;DHT22;1116;51.502;7.414;2024-02-28T16:37:21;11.80;27.50
2220;DHT22;1116;51.502;7.414;2024-02-28T16:39:51;10.70;28.40